sensor_id;sensor_type;location;lat;lon;timestamp;pressure;altitude;pressure_sealevel;temperature;humidity
60886;BME280;46736;41.654;-8.438;2022-09-03T04:04:55;100431.84;;;12.95;87.62
60886;BME280;46736;41.654;-8.438;2022-09-03T04:06:57;100448.91;;;13.06;87.32
60886;BME280;46736;41.654;-8.438;2022-09-03T04:11:22;100447.31;;;13.05;87.34
60886;BME280;46736;41.654;-8.438;2022-09-03T04:31:47;100440.13;;;12.78;87.30
60886;BME280;46736;41.654;-8.438;2022-09-03T04:34:07;100430.34;;;12.72;88.31
60886;BME280;46736;41.654;-8.438;2022-09-03T04:36:13;100442.56;;;12.80;88.47
60886;BME280;46736;41.654;-8.438;2022-09-03T04:38:21;100443.13;;;12.82;87.72
60886;BME280;46736;41.654;-8.438;2022-09-03T04:42:48;100428.00;;;12.81;87.80
60886;BME280;46736;41.654;-8.438;2022-09-03T04:44:49;100434.19;;;12.76;88.33
60886;BME280;46736;41.654;-8.438;2022-09-03T04:46:50;100431.44;;;12.71;88.12
60886;BME280;46736;41.654;-8.438;2022-09-03T04:51:19;100407.09;;;12.61;91.12
60886;BME280;46736;41.654;-8.438;2022-09-03T04:53:21;100424.44;;;12.70;90.50
60886;BME280;46736;41.654;-8.438;2022-09-03T04:55:33;100428.75;;;12.71;91.40
60886;BME280;46736;41.654;-8.438;2022-09-03T04:57:34;100433.91;;;12.73;90.64
60886;BME280;46736;41.654;-8.438;2022-09-03T04:59:42;100420.09;;;12.69;90.34
60886;BME280;46736;41.654;-8.438;2022-09-03T05:02:03;100429.22;;;12.63;89.27
60886;BME280;46736;41.654;-8.438;2022-09-03T05:04:07;100428.69;;;12.61;89.19
60886;BME280;46736;41.654;-8.438;2022-09-03T05:06:12;100424.38;;;12.60;88.94
60886;BME280;46736;41.654;-8.438;2022-09-03T05:08:13;100430.13;;;12.74;90.25
60886;BME280;46736;41.654;-8.438;2022-09-03T05:10:14;100433.41;;;12.81;91.23
60886;BME280;46736;41.654;-8.438;2022-09-03T05:12:22;100435.59;;;12.89;91.16
60886;BME280;46736;41.654;-8.438;2022-09-03T05:17:40;100436.63;;;12.78;90.62
60886;BME280;46736;41.654;-8.438;2022-09-03T05:20:13;100437.09;;;12.69;89.39
60886;BME280;46736;41.654;-8.438;2022-09-03T05:22:19;100442.28;;;12.76;88.52
60886;BME280;46736;41.654;-8.438;2022-09-03T05:27:28;100440.88;;;12.68;86.42
60886;BME280;46736;41.654;-8.438;2022-09-03T05:29:30;100440.28;;;12.61;86.01
60886;BME280;46736;41.654;-8.438;2022-09-03T05:31:31;100442.38;;;12.49;85.95
60886;BME280;46736;41.654;-8.438;2022-09-03T05:33:36;100439.34;;;12.45;87.00
60886;BME280;46736;41.654;-8.438;2022-09-03T05:35:40;100438.47;;;12.35;87.30
60886;BME280;46736;41.654;-8.438;2022-09-03T05:37:48;100445.94;;;12.27;87.90
60886;BME280;46736;41.654;-8.438;2022-09-03T05:39:50;100444.28;;;12.21;88.12
60886;BME280;46736;41.654;-8.438;2022-09-03T05:41:55;100436.09;;;12.11;88.36
60886;BME280;46736;41.654;-8.438;2022-09-03T05:44:00;100440.34;;;12.02;89.14
60886;BME280;46736;41.654;-8.438;2022-09-03T05:48:43;100447.16;;;12.10;87.85
60886;BME280;46736;41.654;-8.438;2022-09-03T05:51:22;100444.38;;;11.99;88.15
60886;BME280;46736;41.654;-8.438;2022-09-03T05:54:20;100444.69;;;11.81;90.17
60886;BME280;46736;41.654;-8.438;2022-09-03T05:56:23;100437.72;;;11.85;91.81
60886;BME280;46736;41.654;-8.438;2022-09-03T05:58:29;100441.22;;;11.86;93.08
60886;BME280;46736;41.654;-8.438;2022-09-03T06:00:31;100448.94;;;11.99;94.40
60886;BME280;46736;41.654;-8.438;2022-09-03T06:02:32;100451.13;;;12.02;94.73
60886;BME280;46736;41.654;-8.438;2022-09-03T06:04:33;100456.63;;;12.12;94.13
60886;BME280;46736;41.654;-8.438;2022-09-03T06:06:36;100456.88;;;12.11;92.97
